sensor_id;sensor_type;location;lat;lon;timestamp;pressure;altitude;pressure_sealevel;temperature;humidity
62791;BME280;48830;53.426;10.300;2023-08-31T00:02:10;100409.78;;;23.42;79.51
62791;BME280;48830;53.426;10.300;2023-08-31T00:04:35;100414.25;;;23.40;79.49
62791;BME280;48830;53.426;10.300;2023-08-31T00:07:01;100415.09;;;23.40;80.01
62791;BME280;48830;53.426;10.300;2023-08-31T00:09:26;100422.06;;;23.41;79.60
62791;BME280;48830;53.426;10.300;2023-08-31T00:11:51;100431.66;;;23.41;79.52
62791;BME280;48830;53.426;10.300;2023-08-31T00:14:17;100415.94;;;23.41;79.65
62791;BME280;48830;53.426;10.300;2023-08-31T00:16:42;100420.34;;;23.40;79.38
62791;BME280;48830;53.426;10.300;2023-08-31T00:19:08;100419.47;;;23.40;79.46
62791;BME280;48830;53.426;10.300;2023-08-31T00:21:33;100415.94;;;23.41;79.44
62791;BME280;48830;53.426;10.300;2023-08-31T00:23:58;100409.00;;;23.40;79.99
62791;BME280;48830;53.426;10.300;2023-08-31T00:26:24;100407.28;;;23.39;79.41
62791;BME280;48830;53.426;10.300;2023-08-31T00:28:49;100403.75;;;23.40;79.22
62791;BME280;48830;53.426;10.300;2023-08-31T00:31:15;100408.13;;;23.39;79.51
62791;BME280;48830;53.426;10.300;2023-08-31T00:33:40;100413.38;;;23.39;79.33
62791;BME280;48830;53.426;10.300;2023-08-31T00:36:06;100402.81;;;23.41;79.16
62791;BME280;48830;53.426;10.300;2023-08-31T00:38:31;100415.09;;;23.40;79.68
62791;BME280;48830;53.426;10.300;2023-08-31T00:40:57;100412.53;;;23.39;79.92
62791;BME280;48830;53.426;10.300;2023-08-31T00:43:22;100410.84;;;23.38;79.53
62791;BME280;48830;53.426;10.300;2023-08-31T00:45:48;100417.94;;;23.36;80.10
62791;BME280;48830;53.426;10.300;2023-08-31T00:48:14;100410.00;;;23.37;79.80
62791;BME280;48830;53.426;10.300;2023-08-31T00:50:40;100414.38;;;23.37;79.84
62791;BME280;48830;53.426;10.300;2023-08-31T00:53:06;100415.25;;;23.37;79.56
62791;BME280;48830;53.426;10.300;2023-08-31T00:55:31;100415.25;;;23.37;80.02
62791;BME280;48830;53.426;10.300;2023-08-31T00:57:58;100414.38;;;23.37;79.66
62791;BME280;48830;53.426;10.300;2023-08-31T01:00:24;100415.09;;;23.40;79.30
62791;BME280;48830;53.426;10.300;2023-08-31T01:05:29;100423.09;;;23.37;79.73
62791;BME280;48830;53.426;10.300;2023-08-31T01:10:36;100419.69;;;23.35;79.66
62791;BME280;48830;53.426;10.300;2023-08-31T01:13:10;100425.00;;;23.34;79.72
62791;BME280;48830;53.426;10.300;2023-08-31T01:15:39;100422.38;;;23.34;79.32
62791;BME280;48830;53.426;10.300;2023-08-31T01:18:06;100427.69;;;23.32;79.47
62791;BME280;48830;53.426;10.300;2023-08-31T01:20:42;100428.63;;;23.31;79.74
62791;BME280;48830;53.426;10.300;2023-08-31T01:23:10;100424.22;;;23.31;79.87
62791;BME280;48830;53.426;10.300;2023-08-31T01:25:36;100426.03;;;23.29;80.06
62791;BME280;48830;53.426;10.300;2023-08-31T01:28:02;100430.41;;;23.30;79.87
62791;BME280;48830;53.426;10.300;2023-08-31T01:30:31;100422.56;;;23.29;79.88
62791;BME280;48830;53.426;10.300;2023-08-31T01:32:57;100423.41;;;23.29;80.09
62791;BME280;48830;53.426;10.300;2023-08-31T01:35:22;100421.72;;;23.28;79.98
62791;BME280;48830;53.426;10.300;2023-08-31T01:40:15;100430.41;;;23.30;79.70
62791;BME280;48830;53.426;10.300;2023-08-31T01:42:44;100430.41;;;23.30;79.44
62791;BME280;48830;53.426;10.300;2023-08-31T01:45:11;100430.13;;;23.37;78.89
62791;BME280;48830;53.426;10.300;2023-08-31T01:47:39;100429.28;;;23.36;78.98
62791;BME280;48830;53.426;10.300;2023-08-31T01:50:05;100425.84;;;23.34;79.31
62791;BME280;48830;53.426;10.300;2023-08-31T01:52:30;100432.09;;;23.31;79.32
62791;BME280;48830;53.426;10.300;2023-08-31T01:54:56;100439.88;;;23.33;79.22
62791;BME280;48830;53.426;10.300;2023-08-31T01:57:21;100442.59;;;23.31;79.08
62791;BME280;48830;53.426;10.300;2023-08-31T02:00:03;100439.16;;;23.29;79.36
62791;BME280;48830;53.426;10.300;2023-08-31T02:02:39;100437.47;;;23.28;79.27
62791;BME280;48830;53.426;10.300;2023-08-31T02:05:05;100432.28;;;23.27;79.82
62791;BME280;48830;53.426;10.300;2023-08-31T02:07:31;100436.69;;;23.26;79.77
62791;BME280;48830;53.426;10.300;2023-08-31T02:09:56;100433.25;;;23.24;80.01
62791;BME280;48830;53.426;10.300;2023-08-31T02:12:21;100439.38;;;23.25;79.40
62791;BME280;48830;53.426;10.300;2023-08-31T02:14:47;100436.81;;;23.23;79.36
62791;BME280;48830;53.426;10.300;2023-08-31T02:17:12;100435.03;;;23.24;79.47
62791;BME280;48830;53.426;10.300;2023-08-31T02:19:38;100439.41;;;23.23;79.34
62791;BME280;48830;53.426;10.300;2023-08-31T02:22:03;100443.75;;;23.24;79.42
62791;BME280;48830;53.426;10.300;2023-08-31T02:24:29;100444.66;;;23.23;79.37
62791;BME280;48830;53.426;10.300;2023-08-31T02:26:55;100451.59;;;23.24;79.88
62791;BME280;48830;53.426;10.300;2023-08-31T02:29:21;100446.38;;;23.24;79.30
62791;BME280;48830;53.426;10.300;2023-08-31T02:31:46;100452.53;;;23.23;79.57
62791;BME280;48830;53.426;10.300;2023-08-31T02:34:11;100449.91;;;23.23;79.36
62791;BME280;48830;53.426;10.300;2023-08-31T02:36:37;100454.31;;;23.23;79.37
62791;BME280;48830;53.426;10.300;2023-08-31T02:39:03;100460.41;;;23.23;79.81
62791;BME280;48830;53.426;10.300;2023-08-31T02:41:29;100463.09;;;23.22;79.48
62791;BME280;48830;53.426;10.300;2023-08-31T02:43:55;100457.00;;;23.21;79.43
62791;BME280;48830;53.426;10.300;2023-08-31T02:46:21;100455.31;;;23.20;79.54
62791;BME280;48830;53.426;10.300;2023-08-31T02:48:46;100465.78;;;23.20;79.54
62791;BME280;48830;53.426;10.300;2023-08-31T02:51:13;100461.47;;;23.19;79.62
62791;BME280;48830;53.426;10.300;2023-08-31T02:53:39;100463.16;;;23.20;79.67
62791;BME280;48830;53.426;10.300;2023-08-31T02:56:04;100455.31;;;23.20;79.62
62791;BME280;48830;53.426;10.300;2023-08-31T02:58:30;100450.97;;;23.19;79.61
62791;BME280;48830;53.426;10.300;2023-08-31T03:01:05;100455.34;;;23.19;79.64
62791;BME280;48830;53.426;10.300;2023-08-31T03:03:31;100457.97;;;23.19;79.23
62791;BME280;48830;53.426;10.300;2023-08-31T03:05:57;100460.66;;;23.17;79.74
62791;BME280;48830;53.426;10.300;2023-08-31T03:08:22;100463.28;;;23.17;79.48
62791;BME280;48830;53.426;10.300;2023-08-31T03:10:47;100451.09;;;23.16;79.75
62791;BME280;48830;53.426;10.300;2023-08-31T03:13:13;100458.97;;;23.16;79.34
62791;BME280;48830;53.426;10.300;2023-08-31T03:15:38;100456.34;;;23.16;79.71
62791;BME280;48830;53.426;10.300;2023-08-31T03:18:05;100465.13;;;23.15;79.94
62791;BME280;48830;53.426;10.300;2023-08-31T03:20:30;100463.44;;;23.14;79.45
62791;BME280;48830;53.426;10.300;2023-08-31T03:22:56;100473.91;;;23.14;79.17
62791;BME280;48830;53.426;10.300;2023-08-31T03:25:23;100466.94;;;23.13;79.31
62791;BME280;48830;53.426;10.300;2023-08-31T03:27:49;100465.19;;;23.14;79.66
62791;BME280;48830;53.426;10.300;2023-08-31T03:30:14;100467.88;;;23.12;79.89
62791;BME280;48830;53.426;10.300;2023-08-31T03:32:40;100473.13;;;23.12;79.24
62791;BME280;48830;53.426;10.300;2023-08-31T03:35:06;100469.63;;;23.12;79.62
62791;BME280;48830;53.426;10.300;2023-08-31T03:37:32;100476.66;;;23.11;79.88
62791;BME280;48830;53.426;10.300;2023-08-31T03:39:58;100475.75;;;23.12;79.52
62791;BME280;48830;53.426;10.300;2023-08-31T03:42:24;100470.50;;;23.12;79.48
62791;BME280;48830;53.426;10.300;2023-08-31T03:44:49;100472.25;;;23.12;79.64
62791;BME280;48830;53.426;10.300;2023-08-31T03:47:16;100473.13;;;23.12;79.63
62791;BME280;48830;53.426;10.300;2023-08-31T03:49:41;100476.66;;;23.11;79.44
62791;BME280;48830;53.426;10.300;2023-08-31T03:52:07;100478.34;;;23.12;79.32
62791;BME280;48830;53.426;10.300;2023-08-31T03:54:32;100478.34;;;23.12;79.07
62791;BME280;48830;53.426;10.300;2023-08-31T03:56:57;100468.00;;;23.09;79.18
62791;BME280;48830;53.426;10.300;2023-08-31T03:59:23;100471.50;;;23.10;79.57
62791;BME280;48830;53.426;10.300;2023-08-31T04:01:48;100469.78;;;23.09;79.30
62791;BME280;48830;53.426;10.300;2023-08-31T04:04:14;100473.25;;;23.09;79.18
62791;BME280;48830;53.426;10.300;2023-08-31T04:06:39;100478.50;;;23.09;79.38
62791;BME280;48830;53.426;10.300;2023-08-31T04:09:05;100470.63;;;23.09;79.37
62791;BME280;48830;53.426;10.300;2023-08-31T04:11:32;100467.16;;;23.09;79.21
62791;BME280;48830;53.426;10.300;2023-08-31T04:13:58;100482.00;;;23.08;79.63
62791;BME280;48830;53.426;10.300;2023-08-31T04:16:23;100482.91;;;23.09;79.20
62791;BME280;48830;53.426;10.300;2023-08-31T04:18:49;100494.22;;;23.09;79.61
62791;BME280;48830;53.426;10.300;2023-08-31T04:21:17;100484.63;;;23.08;79.75
62791;BME280;48830;53.426;10.300;2023-08-31T04:23:42;100489.84;;;23.10;79.51
62791;BME280;48830;53.426;10.300;2023-08-31T04:26:11;100496.03;;;23.07;79.31
62791;BME280;48830;53.426;10.300;2023-08-31T04:28:38;100497.81;;;23.07;79.52
62791;BME280;48830;53.426;10.300;2023-08-31T04:31:04;100514.41;;;23.07;79.80
62791;BME280;48830;53.426;10.300;2023-08-31T04:33:30;100510.94;;;23.07;79.77
62791;BME280;48830;53.426;10.300;2023-08-31T04:35:55;100518.78;;;23.07;79.65
62791;BME280;48830;53.426;10.300;2023-08-31T04:38:21;100515.38;;;23.04;79.60
62791;BME280;48830;53.426;10.300;2023-08-31T04:40:46;100525.81;;;23.06;79.38
62791;BME280;48830;53.426;10.300;2023-08-31T04:43:11;100524.09;;;23.05;79.26
62791;BME280;48830;53.426;10.300;2023-08-31T04:45:37;100524.09;;;23.05;79.46
62791;BME280;48830;53.426;10.300;2023-08-31T04:48:02;100526.72;;;23.05;79.63
62791;BME280;48830;53.426;10.300;2023-08-31T04:50:28;100529.34;;;23.05;79.44
62791;BME280;48830;53.426;10.300;2023-08-31T04:52:54;100536.28;;;23.06;79.26
62791;BME280;48830;53.426;10.300;2023-08-31T04:55:21;100536.38;;;23.04;79.57
62791;BME280;48830;53.426;10.300;2023-08-31T04:57:46;100536.41;;;23.03;79.13
62791;BME280;48830;53.426;10.300;2023-08-31T05:00:12;100546.84;;;23.04;79.06
62791;BME280;48830;53.426;10.300;2023-08-31T05:02:37;100546.00;;;23.04;79.24
62791;BME280;48830;53.426;10.300;2023-08-31T05:05:03;100556.53;;;23.02;79.48
62791;BME280;48830;53.426;10.300;2023-08-31T05:07:29;100555.69;;;23.02;79.49
62791;BME280;48830;53.426;10.300;2023-08-31T05:09:54;100560.06;;;23.01;79.50
62791;BME280;48830;53.426;10.300;2023-08-31T05:12:20;100559.22;;;23.01;79.08
62791;BME280;48830;53.426;10.300;2023-08-31T05:14:45;100562.75;;;23.00;79.43
62791;BME280;48830;53.426;10.300;2023-08-31T05:17:10;100563.63;;;23.00;79.41
62791;BME280;48830;53.426;10.300;2023-08-31T05:19:36;100566.31;;;22.99;79.43
62791;BME280;48830;53.426;10.300;2023-08-31T05:22:01;100561.00;;;23.00;79.27
62791;BME280;48830;53.426;10.300;2023-08-31T05:24:27;100565.31;;;23.01;79.19
62791;BME280;48830;53.426;10.300;2023-08-31T05:26:52;100564.47;;;23.01;78.78
62791;BME280;48830;53.426;10.300;2023-08-31T05:29:18;100571.41;;;23.02;78.83
62791;BME280;48830;53.426;10.300;2023-08-31T05:31:43;100574.94;;;23.01;78.80
62791;BME280;48830;53.426;10.300;2023-08-31T05:34:15;100572.31;;;23.01;78.75
62791;BME280;48830;53.426;10.300;2023-08-31T05:36:41;100581.03;;;23.01;79.04
62791;BME280;48830;53.426;10.300;2023-08-31T05:39:06;100576.66;;;23.02;78.62
62791;BME280;48830;53.426;10.300;2023-08-31T05:41:33;100584.50;;;23.02;79.08
62791;BME280;48830;53.426;10.300;2023-08-31T05:43:58;100593.22;;;23.02;79.00
62791;BME280;48830;53.426;10.300;2023-08-31T05:46:24;100588.00;;;23.02;78.88
62791;BME280;48830;53.426;10.300;2023-08-31T05:48:49;100593.13;;;23.05;78.34
62791;BME280;48830;53.426;10.300;2023-08-31T05:51:14;100593.19;;;23.04;78.63
62791;BME280;48830;53.426;10.300;2023-08-31T05:53:40;100589.72;;;23.03;78.39
62791;BME280;48830;53.426;10.300;2023-08-31T05:56:05;100580.97;;;23.03;78.89
62791;BME280;48830;53.426;10.300;2023-08-31T05:58:36;100590.56;;;23.04;78.76
62791;BME280;48830;53.426;10.300;2023-08-31T06:01:02;100595.81;;;23.04;78.74
62791;BME280;48830;53.426;10.300;2023-08-31T06:03:27;100596.69;;;23.03;78.68
62791;BME280;48830;53.426;10.300;2023-08-31T06:05:54;100594.09;;;23.03;78.46
62791;BME280;48830;53.426;10.300;2023-08-31T06:08:20;100588.84;;;23.03;78.76
62791;BME280;48830;53.426;10.300;2023-08-31T06:10:45;100593.19;;;23.04;78.34
62791;BME280;48830;53.426;10.300;2023-08-31T06:13:11;100601.84;;;23.06;78.46
62791;BME280;48830;53.426;10.300;2023-08-31T06:15:36;100599.91;;;23.11;78.72
62791;BME280;48830;53.426;10.300;2023-08-31T06:18:01;100596.41;;;23.11;78.58
62791;BME280;48830;53.426;10.300;2023-08-31T06:20:27;100597.84;;;23.19;78.57
62791;BME280;48830;53.426;10.300;2023-08-31T06:22:53;100602.88;;;23.24;78.02
62791;BME280;48830;53.426;10.300;2023-08-31T06:25:18;100597.03;;;23.17;78.19
62791;BME280;48830;53.426;10.300;2023-08-31T06:27:44;100595.22;;;23.19;78.56
62791;BME280;48830;53.426;10.300;2023-08-31T06:30:10;100602.16;;;23.20;78.21
62791;BME280;48830;53.426;10.300;2023-08-31T06:32:41;100609.78;;;23.26;78.45
62791;BME280;48830;53.426;10.300;2023-08-31T06:35:06;100604.38;;;23.29;78.08
62791;BME280;48830;53.426;10.300;2023-08-31T06:37:32;100596.53;;;23.29;78.02
62791;BME280;48830;53.426;10.300;2023-08-31T06:39:57;100598.44;;;23.26;78.96
62791;BME280;48830;53.426;10.300;2023-08-31T06:42:23;100605.50;;;23.24;78.99
62791;BME280;48830;53.426;10.300;2023-08-31T06:44:49;100601.25;;;23.21;79.38
62791;BME280;48830;53.426;10.300;2023-08-31T06:47:15;100605.56;;;23.22;79.30
62791;BME280;48830;53.426;10.300;2023-08-31T06:49:42;100603.00;;;23.21;79.50
62791;BME280;48830;53.426;10.300;2023-08-31T06:52:08;100600.31;;;23.22;79.11
62791;BME280;48830;53.426;10.300;2023-08-31T06:54:33;100607.41;;;23.20;79.22
62791;BME280;48830;53.426;10.300;2023-08-31T06:56:59;100603.84;;;23.21;79.10
62791;BME280;48830;53.426;10.300;2023-08-31T06:59:24;100608.31;;;23.19;79.17
62791;BME280;48830;53.426;10.300;2023-08-31T07:01:50;100611.78;;;23.20;79.21
62791;BME280;48830;53.426;10.300;2023-08-31T07:04:15;100602.16;;;23.20;78.91
62791;BME280;48830;53.426;10.300;2023-08-31T07:06:40;100603.84;;;23.21;78.82
62791;BME280;48830;53.426;10.300;2023-08-31T07:09:06;100607.25;;;23.23;78.69
62791;BME280;48830;53.426;10.300;2023-08-31T07:11:33;100619.47;;;23.24;78.88
62791;BME280;48830;53.426;10.300;2023-08-31T07:13:58;100613.34;;;23.24;78.57
62791;BME280;48830;53.426;10.300;2023-08-31T07:16:24;100611.59;;;23.24;78.67
62791;BME280;48830;53.426;10.300;2023-08-31T07:18:49;100610.69;;;23.25;78.38
62791;BME280;48830;53.426;10.300;2023-08-31T07:21:15;100608.97;;;23.24;78.40
62791;BME280;48830;53.426;10.300;2023-08-31T07:23:40;100608.97;;;23.24;78.85
62791;BME280;48830;53.426;10.300;2023-08-31T07:26:05;100600.13;;;23.27;78.69
62791;BME280;48830;53.426;10.300;2023-08-31T07:28:31;100598.25;;;23.30;78.34
62791;BME280;48830;53.426;10.300;2023-08-31T07:31:06;100615.72;;;23.30;78.43
62791;BME280;48830;53.426;10.300;2023-08-31T07:33:32;100602.69;;;23.28;77.98
62791;BME280;48830;53.426;10.300;2023-08-31T07:35:57;100606.13;;;23.30;78.04
62791;BME280;48830;53.426;10.300;2023-08-31T07:38:23;100617.41;;;23.33;77.69
62791;BME280;48830;53.426;10.300;2023-08-31T07:40:49;100615.56;;;23.35;77.76
62791;BME280;48830;53.426;10.300;2023-08-31T07:43:14;100615.56;;;23.35;77.96
62791;BME280;48830;53.426;10.300;2023-08-31T07:45:39;100606.78;;;23.36;77.89
62791;BME280;48830;53.426;10.300;2023-08-31T07:48:05;100611.97;;;23.37;77.86
62791;BME280;48830;53.426;10.300;2023-08-31T07:50:32;100613.75;;;23.37;77.31
62791;BME280;48830;53.426;10.300;2023-08-31T07:52:57;100615.31;;;23.41;77.35
62791;BME280;48830;53.426;10.300;2023-08-31T07:55:22;100611.03;;;23.38;77.11
62791;BME280;48830;53.426;10.300;2023-08-31T07:57:47;100610.06;;;23.41;76.98
62791;BME280;48830;53.426;10.300;2023-08-31T08:00:13;100627.53;;;23.42;77.25
62791;BME280;48830;53.426;10.300;2023-08-31T08:02:40;100617.16;;;23.39;77.64
62791;BME280;48830;53.426;10.300;2023-08-31T08:05:05;100630.94;;;23.44;77.80
62791;BME280;48830;53.426;10.300;2023-08-31T08:07:31;100621.72;;;23.34;74.82
62791;BME280;48830;53.426;10.300;2023-08-31T08:09:56;100623.81;;;23.25;74.91
62791;BME280;48830;53.426;10.300;2023-08-31T08:12:21;100633.44;;;23.25;74.06
62791;BME280;48830;53.426;10.300;2023-08-31T08:14:47;100631.78;;;23.22;74.22
62791;BME280;48830;53.426;10.300;2023-08-31T08:17:12;100638.75;;;23.23;73.83
62791;BME280;48830;53.426;10.300;2023-08-31T08:19:37;100632.63;;;23.23;74.38
62791;BME280;48830;53.426;10.300;2023-08-31T08:22:03;100642.16;;;23.25;74.39
62791;BME280;48830;53.426;10.300;2023-08-31T08:24:28;100644.66;;;23.28;73.84
62791;BME280;48830;53.426;10.300;2023-08-31T08:26:54;100647.16;;;23.31;74.08
62791;BME280;48830;53.426;10.300;2023-08-31T08:29:19;100649.13;;;23.26;74.15
62791;BME280;48830;53.426;10.300;2023-08-31T08:31:45;100650.81;;;23.27;74.56
62791;BME280;48830;53.426;10.300;2023-08-31T08:34:10;100653.38;;;23.29;74.29
62791;BME280;48830;53.426;10.300;2023-08-31T08:36:35;100648.97;;;23.29;73.64
62791;BME280;48830;53.426;10.300;2023-08-31T08:39:01;100641.13;;;23.29;73.82
62791;BME280;48830;53.426;10.300;2023-08-31T08:41:26;100641.06;;;23.31;74.40
62791;BME280;48830;53.426;10.300;2023-08-31T08:43:53;100641.00;;;23.33;74.03
62791;BME280;48830;53.426;10.300;2023-08-31T08:46:20;100646.66;;;23.44;73.73
62791;BME280;48830;53.426;10.300;2023-08-31T08:48:46;100632.63;;;23.45;74.30
62791;BME280;48830;53.426;10.300;2023-08-31T08:51:12;100636.53;;;23.35;73.74
62791;BME280;48830;53.426;10.300;2023-08-31T08:53:38;100634.84;;;23.34;74.38
62791;BME280;48830;53.426;10.300;2023-08-31T08:56:06;100634.72;;;23.37;74.09
62791;BME280;48830;53.426;10.300;2023-08-31T08:58:33;100639.13;;;23.36;74.55
62791;BME280;48830;53.426;10.300;2023-08-31T09:00:58;100634.84;;;23.34;73.58
62791;BME280;48830;53.426;10.300;2023-08-31T09:03:24;100639.78;;;23.41;73.46
62791;BME280;48830;53.426;10.300;2023-08-31T09:05:49;100635.41;;;23.42;74.12
62791;BME280;48830;53.426;10.300;2023-08-31T09:08:15;100636.06;;;23.47;73.71
62791;BME280;48830;53.426;10.300;2023-08-31T09:10:43;100643.72;;;23.51;73.76
62791;BME280;48830;53.426;10.300;2023-08-31T09:13:09;100647.16;;;23.53;73.43
62791;BME280;48830;53.426;10.300;2023-08-31T09:15:35;100655.56;;;23.63;73.14
62791;BME280;48830;53.426;10.300;2023-08-31T09:18:02;100658.41;;;23.57;73.09
62791;BME280;48830;53.426;10.300;2023-08-31T09:20:28;100661.25;;;23.51;73.47
62791;BME280;48830;53.426;10.300;2023-08-31T09:22:54;100660.34;;;23.52;73.43
62791;BME280;48830;53.426;10.300;2023-08-31T09:25:21;100663.00;;;23.50;73.12
62791;BME280;48830;53.426;10.300;2023-08-31T09:27:46;100662.06;;;23.53;73.43
62791;BME280;48830;53.426;10.300;2023-08-31T09:30:12;100660.22;;;23.55;73.26
62791;BME280;48830;53.426;10.300;2023-08-31T09:32:38;100664.50;;;23.79;72.96
62791;BME280;48830;53.426;10.300;2023-08-31T09:35:04;100662.56;;;23.83;72.54
62791;BME280;48830;53.426;10.300;2023-08-31T09:37:33;100654.00;;;23.79;72.54
62791;BME280;48830;53.426;10.300;2023-08-31T09:40:01;100657.09;;;23.67;72.70
62791;BME280;48830;53.426;10.300;2023-08-31T09:42:36;100645.72;;;23.68;72.95
62791;BME280;48830;53.426;10.300;2023-08-31T09:45:03;100652.25;;;23.78;72.70
62791;BME280;48830;53.426;10.300;2023-08-31T09:47:28;100649.00;;;23.73;73.21
62791;BME280;48830;53.426;10.300;2023-08-31T09:49:54;100649.97;;;23.71;72.93
62791;BME280;48830;53.426;10.300;2023-08-31T09:52:19;100646.50;;;23.70;72.40
62791;BME280;48830;53.426;10.300;2023-08-31T09:54:46;100651.50;;;23.76;72.30
62791;BME280;48830;53.426;10.300;2023-08-31T09:57:12;100646.16;;;23.78;72.24
62791;BME280;48830;53.426;10.300;2023-08-31T09:59:39;100643.06;;;23.90;71.95
62791;BME280;48830;53.426;10.300;2023-08-31T10:02:04;100651.31;;;24.01;72.39
62791;BME280;48830;53.426;10.300;2023-08-31T10:04:30;100639.91;;;24.02;71.99
62791;BME280;48830;53.426;10.300;2023-08-31T10:06:58;100643.47;;;24.00;72.39
62791;BME280;48830;53.426;10.300;2023-08-31T10:09:23;100656.41;;;24.04;72.40
62791;BME280;48830;53.426;10.300;2023-08-31T10:11:49;100645.03;;;24.05;71.76
62791;BME280;48830;53.426;10.300;2023-08-31T10:14:14;100652.94;;;24.04;71.91
62791;BME280;48830;53.426;10.300;2023-08-31T10:16:41;100655.06;;;23.96;72.15
62791;BME280;48830;53.426;10.300;2023-08-31T10:19:09;100661.75;;;24.03;72.21
62791;BME280;48830;53.426;10.300;2023-08-31T10:21:34;100643.38;;;24.03;72.57
62791;BME280;48830;53.426;10.300;2023-08-31T10:23:59;100650.50;;;23.99;72.05
62791;BME280;48830;53.426;10.300;2023-08-31T10:26:28;100656.03;;;23.93;72.17
62791;BME280;48830;53.426;10.300;2023-08-31T10:28:54;100649.16;;;23.91;72.21
62791;BME280;48830;53.426;10.300;2023-08-31T10:31:20;100653.59;;;23.89;72.92
62791;BME280;48830;53.426;10.300;2023-08-31T10:34:08;100655.19;;;23.93;72.64
62791;BME280;48830;53.426;10.300;2023-08-31T10:36:37;100658.63;;;23.95;72.36
62791;BME280;48830;53.426;10.300;2023-08-31T10:39:11;100653.56;;;23.90;72.36
62791;BME280;48830;53.426;10.300;2023-08-31T10:41:36;100657.03;;;23.91;72.43
62791;BME280;48830;53.426;10.300;2023-08-31T10:44:02;100650.72;;;23.95;71.96
62791;BME280;48830;53.426;10.300;2023-08-31T10:50:15;100648.75;;;24.00;72.21
62791;BME280;48830;53.426;10.300;2023-08-31T10:52:44;100657.66;;;23.75;73.15
62791;BME280;48830;53.426;10.300;2023-08-31T10:55:11;100655.38;;;23.68;73.26
62791;BME280;48830;53.426;10.300;2023-08-31T10:57:36;100661.56;;;23.65;73.36
62791;BME280;48830;53.426;10.300;2023-08-31T11:00:02;100656.47;;;23.61;73.45
62791;BME280;48830;53.426;10.300;2023-08-31T11:02:36;100645.06;;;23.62;73.50
62791;BME280;48830;53.426;10.300;2023-08-31T11:07:33;100651.63;;;23.73;73.44
62791;BME280;48830;53.426;10.300;2023-08-31T11:10:12;100641.84;;;23.77;73.40
62791;BME280;48830;53.426;10.300;2023-08-31T11:12:40;100649.41;;;23.85;73.30
62791;BME280;48830;53.426;10.300;2023-08-31T11:15:06;100647.50;;;23.88;73.00
62791;BME280;48830;53.426;10.300;2023-08-31T11:17:32;100646.38;;;23.94;72.49
62791;BME280;48830;53.426;10.300;2023-08-31T11:19:59;100636.69;;;23.96;72.29
62791;BME280;48830;53.426;10.300;2023-08-31T11:22:25;100633.50;;;23.88;72.81
62791;BME280;48830;53.426;10.300;2023-08-31T11:24:50;100638.06;;;23.84;73.31
62791;BME280;48830;53.426;10.300;2023-08-31T11:27:19;100636.03;;;23.91;72.94
62791;BME280;48830;53.426;10.300;2023-08-31T11:29:45;100638.06;;;23.84;73.28
62791;BME280;48830;53.426;10.300;2023-08-31T11:32:11;100635.88;;;23.94;73.11
62791;BME280;48830;53.426;10.300;2023-08-31T11:34:55;100645.16;;;24.02;73.08
62791;BME280;48830;53.426;10.300;2023-08-31T11:37:20;100638.00;;;24.06;72.82
62791;BME280;48830;53.426;10.300;2023-08-31T11:39:53;100645.88;;;24.06;72.60
62791;BME280;48830;53.426;10.300;2023-08-31T11:42:20;100652.94;;;24.04;73.10
62791;BME280;48830;53.426;10.300;2023-08-31T11:44:47;100650.00;;;24.12;72.42
62791;BME280;48830;53.426;10.300;2023-08-31T11:47:14;100650.97;;;24.09;72.47
62791;BME280;48830;53.426;10.300;2023-08-31T11:49:41;100657.53;;;23.99;72.92
62791;BME280;48830;53.426;10.300;2023-08-31T11:52:09;100667.28;;;23.97;73.07
62791;BME280;48830;53.426;10.300;2023-08-31T11:54:39;100670.16;;;24.11;72.27
62791;BME280;48830;53.426;10.300;2023-08-31T11:57:09;100667.53;;;24.11;72.77
62791;BME280;48830;53.426;10.300;2023-08-31T11:59:35;100670.63;;;24.00;72.50
62791;BME280;48830;53.426;10.300;2023-08-31T12:02:02;100672.84;;;24.09;72.39
62791;BME280;48830;53.426;10.300;2023-08-31T12:04:30;100667.00;;;24.23;71.87
62791;BME280;48830;53.426;10.300;2023-08-31T12:07:00;100676.59;;;24.24;71.93
62791;BME280;48830;53.426;10.300;2023-08-31T12:09:27;100683.31;;;24.11;72.17
62791;BME280;48830;53.426;10.300;2023-08-31T12:11:52;100685.41;;;24.23;72.19
62791;BME280;48830;53.426;10.300;2023-08-31T12:14:22;100672.38;;;24.20;72.01
62791;BME280;48830;53.426;10.300;2023-08-31T12:16:47;100666.16;;;24.23;71.91
62791;BME280;48830;53.426;10.300;2023-08-31T12:19:13;100675.34;;;24.33;70.60
62791;BME280;48830;53.426;10.300;2023-08-31T12:21:39;100675.88;;;24.41;70.56
62791;BME280;48830;53.426;10.300;2023-08-31T12:24:04;100675.41;;;24.31;69.39
62791;BME280;48830;53.426;10.300;2023-08-31T12:26:31;100672.97;;;24.27;68.86
62791;BME280;48830;53.426;10.300;2023-08-31T12:28:57;100673.56;;;24.33;69.71
62791;BME280;48830;53.426;10.300;2023-08-31T12:31:22;100671.44;;;24.43;67.73
62791;BME280;48830;53.426;10.300;2023-08-31T12:33:48;100678.31;;;24.46;68.21
62791;BME280;48830;53.426;10.300;2023-08-31T12:36:13;100680.22;;;24.42;69.17
62791;BME280;48830;53.426;10.300;2023-08-31T12:38:39;100680.41;;;24.17;68.77
62791;BME280;48830;53.426;10.300;2023-08-31T12:41:04;100685.94;;;24.11;68.85
62791;BME280;48830;53.426;10.300;2023-08-31T12:43:29;100681.97;;;24.01;68.83
62791;BME280;48830;53.426;10.300;2023-08-31T12:45:56;100681.06;;;24.02;69.94
62791;BME280;48830;53.426;10.300;2023-08-31T12:48:21;100687.16;;;24.02;69.31
62791;BME280;48830;53.426;10.300;2023-08-31T12:50:47;100683.41;;;24.08;68.89